Ramsey, Minnesota
Current Conditions -  °F | °C
As of 11:01 PM on Friday 21 Nov 2014 (Local Time) from KANE Reporting Station
Clear Clear  
Wind Chill: 25°   Ceiling: Unl
Heat Index: 34°   Visibility: 10mi
Dew Point: 28°   Wind: 12mph
Humidity: 81%   Direction: 200°SSW
Pressure: 29.86"   Gusts: 22mph
Location:  45.25°N, 93.41°W
Report Text: KANE 220501Z AUTO 20010G19KT 10SM CLR 01/M02 A2986 RMK AO2
Loading
Personal Weather Stations






























Interactive Weather Map New forecast layout! Learn more

10-Day Weather Forecast

Advertisements
Track Severe Weather on mobile